Time;durP1;ratioP1;P1;durP2;ratioP2;P2;SDS_P1;SDS_P2;PMS_P1;PMS_P2;Temp;Humidity;BMP_temperature;BMP_pressure;BME280_temperature;BME280_humidity;BME280_pressure;Samples;Min_cycle;Max_cycle;Signal;HPM_P1;HPM_P2
2022/12/27 00:00:43;;;;;;;9.18;2.92;;;5.70;99.90;;;;;;5036108;28;20018;-46
2022/12/27 00:03:29;;;;;;;10.65;3.63;;;5.80;99.90;;;;;;5033157;28;20105;-51
2022/12/27 00:06:20;;;;;;;8.68;3.50;;;5.90;99.90;;;;;;5036420;28;20025;-50
2022/12/27 00:09:06;;;;;;;6.00;2.92;;;6.00;99.90;;;;;;5036021;28;20072;-55
2022/12/27 00:11:52;;;;;;;8.57;3.20;;;6.10;99.90;;;;;;5034099;28;20744;-48
2022/12/27 00:14:38;;;;;;;8.00;3.35;;;6.10;99.90;;;;;;5035937;28;20421;-47
2022/12/27 00:17:24;;;;;;;7.18;3.47;;;6.00;99.90;;;;;;5033832;28;20064;-46
2022/12/27 00:20:10;;;;;;;6.97;2.80;;;5.90;99.90;;;;;;5035672;28;20032;-47
2022/12/27 00:22:59;;;;;;;11.38;3.20;;;5.90;99.90;;;;;;5036117;28;20036;-48
2022/12/27 00:25:45;;;;;;;7.50;2.83;;;5.90;99.90;;;;;;5037035;28;20410;-48
2022/12/27 00:28:32;;;;;;;7.80;3.25;;;5.90;99.90;;;;;;5035963;28;20577;-49
2022/12/27 00:31:20;;;;;;;11.52;2.80;;;5.70;99.90;;;;;;5035515;28;20029;-47
2022/12/27 00:34:06;;;;;;;6.65;3.03;;;5.70;99.90;;;;;;5035988;28;20030;-49
2022/12/27 00:36:52;;;;;;;9.00;3.05;;;5.50;99.90;;;;;;5035905;28;20032;-46
2022/12/27 00:39:38;;;;;;;9.98;3.15;;;5.30;99.90;;;;;;5034108;28;20026;-49
2022/12/27 00:42:24;;;;;;;8.43;2.72;;;5.50;99.90;;;;;;5034094;28;20029;-49
2022/12/27 00:45:10;;;;;;;5.38;2.78;;;5.50;99.90;;;;;;5035339;28;20079;-49
2022/12/27 00:47:56;;;;;;;5.47;3.05;;;5.30;99.90;;;;;;5034080;28;20037;-49
2022/12/27 00:50:43;;;;;;;10.85;2.70;;;5.30;99.90;;;;;;5034922;28;20037;-48
2022/12/27 00:53:30;;;;;;;9.45;2.92;;;5.20;99.90;;;;;;5035239;28;20067;-49
2022/12/27 00:56:22;;;;;;;10.07;3.30;;;5.20;99.90;;;;;;5034377;28;20071;-48
2022/12/27 00:59:10;;;;;;;7.85;3.08;;;5.20;99.90;;;;;;5034997;28;20033;-47
2022/12/27 01:01:56;;;;;;;8.68;3.78;;;5.20;99.90;;;;;;5034636;28;20464;-49
2022/12/27 01:04:42;;;;;;;9.25;3.72;;;5.20;99.90;;;;;;5034976;28;20108;-53
2022/12/27 01:07:28;;;;;;;8.25;3.70;;;5.10;99.90;;;;;;5034889;28;20394;-54
2022/12/27 01:10:14;;;;;;;5.05;3.35;;;5.10;99.90;;;;;;5034612;28;20030;-53
2022/12/27 01:13:02;;;;;;;13.23;3.95;;;5.00;99.90;;;;;;5035044;28;20033;-46
2022/12/27 01:15:48;;;;;;;9.15;3.78;;;4.90;99.90;;;;;;5034808;28;20022;-44
2022/12/27 01:18:34;;;;;;;11.63;4.35;;;4.90;99.90;;;;;;5034648;28;20024;-49
2022/12/27 01:21:22;;;;;;;12.48;4.22;;;4.90;99.90;;;;;;5034211;28;20481;-45
2022/12/27 01:24:08;;;;;;;9.30;3.80;;;4.90;99.90;;;;;;5034874;28;20481;-47
2022/12/27 01:26:54;;;;;;;8.45;4.10;;;4.80;99.90;;;;;;5034100;28;20401;-46
2022/12/27 01:29:40;;;;;;;11.05;4.57;;;4.90;99.90;;;;;;5034747;28;20021;-47
2022/12/27 01:32:25;;;;;;;6.90;3.88;;;4.90;99.90;;;;;;5034244;28;20034;-46
2022/12/27 01:35:12;;;;;;;12.63;4.57;;;4.80;99.90;;;;;;5034350;28;20076;-46
2022/12/27 01:37:57;;;;;;;13.38;4.88;;;4.80;99.90;;;;;;5034524;28;20057;-46
2022/12/27 01:40:43;;;;;;;6.47;4.35;;;4.80;99.90;;;;;;5032434;28;20034;-45
2022/12/27 01:43:37;;;;;;;10.20;4.75;;;4.80;99.90;;;;;;5034223;28;20025;-48
2022/12/27 01:46:23;;;;;;;11.38;4.38;;;4.60;99.90;;;;;;5034286;28;20024;-47
2022/12/27 01:49:10;;;;;;;9.95;5.03;;;4.60;99.90;;;;;;5034349;28;20033;-48
2022/12/27 01:51:57;;;;;;;8.85;4.50;;;4.60;99.90;;;;;;5033919;28;20025;-46
2022/12/27 01:54:43;;;;;;;10.15;4.60;;;4.60;99.90;;;;;;5034120;28;20108;-54
2022/12/27 01:57:29;;;;;;;9.77;5.22;;;4.50;99.90;;;;;;5034024;28;20056;-54
2022/12/27 02:00:16;;;;;;;11.07;5.97;;;4.60;99.90;;;;;;5033654;28;20026;-50
2022/12/27 02:03:04;;;;;;;13.13;4.63;;;4.50;99.90;;;;;;5034162;28;20028;-50
2022/12/27 02:05:51;;;;;;;7.05;4.55;;;4.40;99.90;;;;;;5032724;28;20045;-48
2022/12/27 02:08:40;;;;;;;10.52;4.50;;;4.30;99.90;;;;;;5034042;28;20026;-48
2022/12/27 02:14:43;;;;;;;7.80;3.95;;;4.30;99.90;;;;;;5033440;28;20057;-49
2022/12/27 02:17:31;;;;;;;16.63;4.70;;;4.40;99.90;;;;;;5033583;28;20033;-47
2022/12/27 02:20:21;;;;;;;11.73;3.60;;;4.40;99.90;;;;;;5033395;28;20478;-47
2022/12/27 02:26:48;;;;;;;8.63;4.13;;;4.40;99.90;;;;;;5033406;28;20485;-52
2022/12/27 02:29:40;;;;;;;7.03;3.40;;;4.40;99.90;;;;;;5033391;28;20025;-52
2022/12/27 02:32:37;;;;;;;8.20;3.40;;;4.30;99.90;;;;;;5033023;28;20083;-48
2022/12/27 02:35:38;;;;;;;8.85;3.88;;;4.30;99.90;;;;;;5033342;28;20064;-46
2022/12/27 02:38:31;;;;;;;9.52;3.42;;;4.20;99.90;;;;;;5033471;28;20018;-46
2022/12/27 02:54:33;;;;;;;7.03;3.60;;;4.10;99.90;;;;;;5033164;28;20104;-45
2022/12/27 02:57:25;;;;;;;9.10;3.70;;;4.00;99.90;;;;;;5030455;28;20029;-53
2022/12/27 03:04:02;;;;;;;6.78;3.42;;;4.00;99.90;;;;;;5033232;28;20416;-48
2022/12/27 03:07:09;;;;;;;7.65;3.40;;;4.00;99.90;;;;;;5031418;28;20105;-48
2022/12/27 03:16:25;;;;;;;5.82;3.80;;;4.10;99.90;;;;;;5032773;28;20112;-48
2022/12/27 03:25:47;;;;;;;7.97;3.15;;;4.20;99.90;;;;;;5033043;28;20042;-47
2022/12/27 03:35:19;;;;;;;9.43;3.80;;;3.90;99.90;;;;;;5032539;28;20112;-44
2022/12/27 03:38:08;;;;;;;4.90;3.17;;;3.90;99.90;;;;;;5032431;28;20061;-44
2022/12/27 03:44:23;;;;;;;9.85;3.25;;;3.80;99.90;;;;;;5032438;28;20026;-51
2022/12/27 03:47:30;;;;;;;10.15;3.17;;;3.80;99.90;;;;;;5030324;28;20056;-48
2022/12/27 03:50:34;;;;;;;9.35;2.72;;;3.80;99.90;;;;;;5032058;28;20048;-47
2022/12/27 03:53:34;;;;;;;4.90;3.00;;;3.70;99.90;;;;;;5032471;28;20022;-46
2022/12/27 03:56:20;;;;;;;8.55;3.30;;;3.70;99.90;;;;;;5032260;28;20022;-44
2022/12/27 03:59:07;;;;;;;6.28;3.38;;;3.70;99.90;;;;;;5032307;28;20025;-45
2022/12/27 04:01:54;;;;;;;9.00;3.45;;;3.70;99.90;;;;;;5029972;28;20375;-46
2022/12/27 04:04:40;;;;;;;5.20;3.08;;;3.60;99.90;;;;;;5033334;28;20036;-50
2022/12/27 04:07:26;;;;;;;8.13;3.10;;;3.60;99.90;;;;;;5033783;28;20556;-47
2022/12/27 04:34:48;;;;;;;8.23;3.75;;;3.60;99.90;;;;;;5035457;28;20026;-50
2022/12/27 04:37:34;;;;;;;10.25;3.53;;;3.60;99.90;;;;;;5035441;28;20024;-54
2022/12/27 04:55:42;;;;;;;11.57;3.78;;;3.60;99.90;;;;;;5035125;28;20053;-61
2022/12/27 04:58:28;;;;;;;9.43;3.40;;;3.60;99.90;;;;;;5035090;28;20050;-45
2022/12/27 05:04:19;;;;;;;6.93;3.40;;;3.60;99.90;;;;;;5034789;28;20022;-49
2022/12/27 05:16:21;;;;;;;7.65;3.25;;;3.50;99.90;;;;;;5034938;28;20060;-52
2022/12/27 05:19:10;;;;;;;10.15;3.45;;;3.60;99.90;;;;;;5034761;28;20048;-51
2022/12/27 05:28:08;;;;;;;8.63;3.17;;;3.60;99.90;;;;;;5034365;28;20033;-53
2022/12/27 05:31:00;;;;;;;8.57;3.58;;;3.60;99.90;;;;;;5032821;28;20109;-45
2022/12/27 05:33:47;;;;;;;7.90;3.33;;;3.60;99.90;;;;;;5031989;28;20505;-49
2022/12/27 05:36:33;;;;;;;9.00;3.65;;;3.70;99.90;;;;;;5034161;28;20029;-45
2022/12/27 05:39:19;;;;;;;8.32;3.67;;;3.70;99.90;;;;;;5034162;28;20026;-48
2022/12/27 05:42:05;;;;;;;9.43;3.40;;;3.70;99.90;;;;;;5033366;28;20397;-48
2022/12/27 05:44:51;;;;;;;6.30;3.03;;;3.70;99.90;;;;;;5032733;28;20552;-50
2022/12/27 05:47:37;;;;;;;8.13;3.40;;;3.70;99.90;;;;;;5033834;28;20042;-45
2022/12/27 05:50:23;;;;;;;10.35;3.83;;;3.70;99.90;;;;;;5033737;28;20025;-50
2022/12/27 05:53:09;;;;;;;9.60;3.63;;;3.60;99.90;;;;;;5033957;28;20529;-50
2022/12/27 05:55:56;;;;;;;7.47;3.45;;;3.60;99.90;;;;;;5034066;28;20386;-46
2022/12/27 05:58:43;;;;;;;7.97;3.70;;;3.70;99.90;;;;;;5031920;28;20486;-49
2022/12/27 06:01:29;;;;;;;9.32;4.10;;;3.70;99.90;;;;;;5033666;28;20029;-46
2022/12/27 06:04:15;;;;;;;8.40;3.65;;;3.70;99.90;;;;;;5034137;28;20024;-51
2022/12/27 06:07:01;;;;;;;8.85;3.85;;;3.70;99.90;;;;;;5033407;28;20026;-52
2022/12/27 06:09:46;;;;;;;6.80;3.80;;;3.70;99.90;;;;;;5031549;28;20032;-50
2022/12/27 06:12:33;;;;;;;10.48;4.50;;;3.70;99.90;;;;;;5032929;28;20036;-56
2022/12/27 06:15:18;;;;;;;9.43;3.60;;;3.70;99.90;;;;;;5033453;28;20481;-55
2022/12/27 06:18:05;;;;;;;12.52;4.00;;;3.70;99.90;;;;;;5033376;28;20430;-52
2022/12/27 06:20:51;;;;;;;8.65;4.00;;;3.70;99.90;;;;;;5032760;28;20022;-52
2022/12/27 06:23:39;;;;;;;6.82;3.67;;;3.60;99.90;;;;;;5032144;28;20103;-51
2022/12/27 06:26:27;;;;;;;7.07;3.92;;;3.60;99.90;;;;;;5033702;28;20498;-56
2022/12/27 06:29:13;;;;;;;9.35;3.58;;;3.60;99.90;;;;;;5033222;28;20032;-45
2022/12/27 06:31:59;;;;;;;12.05;3.60;;;3.70;99.90;;;;;;5032851;28;20029;-48
2022/12/27 06:34:45;;;;;;;9.43;3.88;;;3.60;99.90;;;;;;5033472;28;20040;-47
2022/12/27 06:37:31;;;;;;;11.07;3.75;;;3.60;99.90;;;;;;5033150;28;20028;-45
2022/12/27 06:40:19;;;;;;;8.00;3.63;;;3.50;99.90;;;;;;5031829;28;20022;-45
2022/12/27 06:43:05;;;;;;;6.78;3.90;;;3.60;99.90;;;;;;5032221;28;20131;-55
2022/12/27 06:45:59;;;;;;;8.38;3.90;;;3.60;99.90;;;;;;5033169;28;20105;-45
2022/12/27 06:48:45;;;;;;;13.10;4.28;;;3.70;99.90;;;;;;5032986;28;20521;-48
2022/12/27 06:51:32;;;;;;;9.27;3.97;;;3.60;99.90;;;;;;5032679;28;20057;-53
2022/12/27 06:54:18;;;;;;;10.45;3.70;;;3.60;99.90;;;;;;5030906;28;20029;-48
2022/12/27 06:57:04;;;;;;;10.98;3.40;;;3.60;99.90;;;;;;5031962;28;20029;-53
2022/12/27 06:59:50;;;;;;;10.38;4.13;;;3.70;99.90;;;;;;5033199;28;20072;-54
2022/12/27 07:02:37;;;;;;;6.95;3.28;;;3.70;99.90;;;;;;5030144;28;20025;-55
2022/12/27 07:05:23;;;;;;;9.20;4.68;;;3.80;99.90;;;;;;5033087;28;20037;-47
2022/12/27 07:08:08;;;;;;;8.65;3.83;;;3.80;99.90;;;;;;5030765;28;20029;-50
2022/12/27 07:11:06;;;;;;;9.18;3.72;;;3.80;99.90;;;;;;5032390;28;20026;-47
2022/12/27 07:13:54;;;;;;;10.00;4.07;;;3.80;99.90;;;;;;5032644;28;20060;-51
2022/12/27 07:16:40;;;;;;;8.27;3.88;;;3.70;99.90;;;;;;5032592;28;20163;-46
2022/12/27 07:19:25;;;;;;;8.30;3.90;;;3.80;99.90;;;;;;5032583;28;20033;-45
2022/12/27 07:22:11;;;;;;;8.18;3.70;;;3.90;99.90;;;;;;5032304;28;20034;-47
2022/12/27 07:24:57;;;;;;;7.45;4.10;;;3.90;99.90;;;;;;5031554;28;20061;-50
2022/12/27 07:27:43;;;;;;;10.90;3.78;;;3.90;99.90;;;;;;5016797;28;20041;-49
2022/12/27 07:30:29;;;;;;;7.97;4.10;;;3.90;99.90;;;;;;5032465;28;20031;-47
2022/12/27 07:33:15;;;;;;;11.15;4.25;;;4.00;99.90;;;;;;5031665;28;20119;-50
2022/12/27 07:36:02;;;;;;;8.73;3.78;;;4.00;99.90;;;;;;5033302;28;20033;-54
2022/12/27 07:38:48;;;;;;;9.07;4.28;;;4.10;99.90;;;;;;5032311;28;20025;-48
2022/12/27 07:41:35;;;;;;;7.93;3.88;;;4.00;99.90;;;;;;5032209;28;20084;-47
2022/12/27 07:44:21;;;;;;;11.70;4.43;;;4.00;99.90;;;;;;5032573;28;20100;-53
2022/12/27 07:47:06;;;;;;;8.50;3.95;;;4.00;99.90;;;;;;5032219;28;20061;-47
2022/12/27 07:49:52;;;;;;;8.80;4.32;;;4.00;99.90;;;;;;5029541;28;20022;-47
2022/12/27 07:52:38;;;;;;;7.35;4.00;;;4.00;99.90;;;;;;5032623;28;20026;-47
2022/12/27 07:55:24;;;;;;;6.22;4.20;;;4.10;99.90;;;;;;5032660;28;20033;-47
2022/12/27 07:58:10;;;;;;;6.60;3.55;;;4.10;99.90;;;;;;5032839;28;20025;-50
2022/12/27 08:00:56;;;;;;;9.18;4.00;;;4.10;99.90;;;;;;5032306;28;20146;-48
2022/12/27 08:03:42;;;;;;;8.45;3.85;;;4.10;99.90;;;;;;5033689;28;20033;-59
2022/12/27 08:06:33;;;;;;;11.88;4.43;;;4.20;99.90;;;;;;5036481;28;20040;-54
2022/12/27 08:09:27;;;;;;;8.65;4.47;;;4.20;99.90;;;;;;5036449;28;20448;-47
2022/12/27 08:12:14;;;;;;;9.27;3.90;;;4.20;99.90;;;;;;5035939;28;20147;-51
2022/12/27 08:15:00;;;;;;;13.60;3.83;;;4.20;99.90;;;;;;5036066;28;20060;-55
2022/12/27 08:17:46;;;;;;;13.63;4.10;;;4.20;99.90;;;;;;5035945;28;20029;-54
2022/12/27 08:20:32;;;;;;;7.45;3.85;;;4.30;99.90;;;;;;5035327;28;20030;-48
2022/12/27 08:23:18;;;;;;;9.63;3.55;;;4.30;99.90;;;;;;5035908;28;20033;-48
2022/12/27 08:26:04;;;;;;;7.72;3.53;;;4.30;99.90;;;;;;5034965;28;20397;-48
2022/12/27 08:28:51;;;;;;;8.25;3.53;;;4.30;99.90;;;;;;5034544;28;20456;-50
2022/12/27 08:31:37;;;;;;;6.72;3.22;;;4.30;99.90;;;;;;5035300;28;20088;-52
2022/12/27 08:34:23;;;;;;;6.43;4.40;;;4.30;99.90;;;;;;5034295;28;20029;-50
2022/12/27 08:37:09;;;;;;;7.72;3.40;;;4.20;99.90;;;;;;5033503;28;20018;-50
2022/12/27 08:39:55;;;;;;;8.45;3.80;;;4.30;99.90;;;;;;5033671;28;20509;-49
2022/12/27 08:42:41;;;;;;;6.38;3.58;;;4.30;99.90;;;;;;5035364;28;20025;-51
2022/12/27 08:45:27;;;;;;;6.47;3.47;;;4.40;99.90;;;;;;5035463;28;20025;-57
2022/12/27 08:48:13;;;;;;;7.65;4.13;;;4.40;99.90;;;;;;5035616;28;20037;-57
2022/12/27 08:51:06;;;;;;;8.65;3.83;;;4.40;99.90;;;;;;5036159;28;20026;-59
2022/12/27 08:53:52;;;;;;;9.63;3.85;;;4.50;99.90;;;;;;5036803;28;20033;-50
2022/12/27 08:56:38;;;;;;;10.10;3.88;;;4.50;99.90;;;;;;5036930;28;20042;-50
2022/12/27 08:59:24;;;;;;;8.35;3.78;;;4.50;99.90;;;;;;5036477;28;20500;-49
2022/12/27 09:02:10;;;;;;;5.85;3.38;;;4.60;99.90;;;;;;5034480;28;20025;-53
2022/12/27 09:04:56;;;;;;;7.47;3.78;;;4.70;99.90;;;;;;5037316;28;20052;-51
2022/12/27 09:07:42;;;;;;;7.43;3.85;;;4.80;99.90;;;;;;5035229;28;20026;-48
2022/12/27 09:10:28;;;;;;;7.35;3.60;;;4.80;99.90;;;;;;5034494;28;20045;-53
2022/12/27 09:13:14;;;;;;;5.45;3.28;;;4.70;99.90;;;;;;5034404;28;20025;-56
2022/12/27 09:16:04;;;;;;;9.75;3.55;;;4.90;99.90;;;;;;5033920;28;20086;-54
2022/12/27 09:18:52;;;;;;;5.70;3.38;;;4.90;99.90;;;;;;5034739;28;20021;-47
2022/12/27 09:21:40;;;;;;;10.80;3.70;;;4.90;99.90;;;;;;5034548;28;20457;-48
2022/12/27 09:24:26;;;;;;;8.00;3.70;;;4.90;99.90;;;;;;5032565;28;20075;-50
2022/12/27 09:27:12;;;;;;;9.93;3.92;;;5.00;99.90;;;;;;5034746;28;20017;-55
2022/12/27 09:29:58;;;;;;;7.45;3.47;;;5.10;99.90;;;;;;5034768;28;20414;-53
2022/12/27 09:32:44;;;;;;;8.05;4.25;;;5.10;99.90;;;;;;5034677;28;20033;-49
2022/12/27 09:35:30;;;;;;;7.53;4.15;;;5.20;99.90;;;;;;5032258;28;20037;-48
2022/12/27 09:38:16;;;;;;;8.95;3.83;;;5.20;99.90;;;;;;5032184;28;20026;-46
2022/12/27 09:41:12;;;;;;;6.25;3.38;;;5.30;99.90;;;;;;5034286;28;20036;-53
2022/12/27 09:44:06;;;;;;;7.78;3.70;;;5.40;99.90;;;;;;5033363;28;20639;-52
2022/12/27 09:47:13;;;;;;;9.75;4.10;;;5.50;99.90;;;;;;5034172;28;20103;-50
2022/12/27 09:50:09;;;;;;;7.68;3.80;;;5.50;99.90;;;;;;5032066;28;20021;-50
2022/12/27 09:53:08;;;;;;;8.35;3.90;;;5.50;99.90;;;;;;5034433;28;20036;-49
2022/12/27 09:55:58;;;;;;;10.13;3.80;;;5.60;99.90;;;;;;5019713;28;20043;-47
2022/12/27 09:58:53;;;;;;;7.63;3.40;;;5.60;99.90;;;;;;5033807;28;20056;-45
2022/12/27 10:01:39;;;;;;;6.97;3.40;;;5.60;99.90;;;;;;5033870;28;20017;-53
2022/12/27 10:04:35;;;;;;;6.35;3.60;;;5.60;99.90;;;;;;5031558;28;20032;-57
2022/12/27 10:07:24;;;;;;;10.00;4.13;;;5.70;99.90;;;;;;5032997;28;20083;-45
2022/12/27 10:10:31;;;;;;;7.85;3.28;;;5.60;99.90;;;;;;5033723;28;20076;-48
2022/12/27 10:13:41;;;;;;;7.35;3.25;;;5.70;99.90;;;;;;5034019;28;20056;-53
2022/12/27 10:16:37;;;;;;;8.27;3.33;;;5.60;99.90;;;;;;5035118;28;20100;-54
2022/12/27 10:19:51;;;;;;;11.00;3.45;;;5.60;99.90;;;;;;5032734;28;20021;-45
2022/12/27 10:22:47;;;;;;;5.47;3.45;;;5.60;99.90;;;;;;5038588;28;20026;-46
2022/12/27 10:25:36;;;;;;;6.82;3.67;;;5.70;99.90;;;;;;5035616;28;20025;-49
2022/12/27 10:28:27;;;;;;;7.70;3.47;;;5.80;99.90;;;;;;5033381;28;20033;-48
2022/12/27 10:31:19;;;;;;;6.15;3.33;;;5.90;99.90;;;;;;5032161;28;20036;-46
2022/12/27 10:34:05;;;;;;;10.20;3.70;;;5.80;99.90;;;;;;5033448;28;20034;-46
2022/12/27 10:36:52;;;;;;;6.50;3.40;;;6.00;99.90;;;;;;5033616;28;20115;-45
2022/12/27 10:39:38;;;;;;;7.68;3.20;;;6.00;99.90;;;;;;5033500;28;20520;-55
2022/12/27 10:42:37;;;;;;;6.22;3.05;;;6.00;99.90;;;;;;5032334;28;20021;-53
2022/12/27 10:45:35;;;;;;;10.85;4.00;;;6.00;99.90;;;;;;5033539;28;20025;-45
2022/12/27 10:48:23;;;;;;;6.53;3.53;;;6.00;99.90;;;;;;5032969;28;20402;-50
2022/12/27 10:51:10;;;;;;;7.45;3.35;;;6.10;99.90;;;;;;5032940;28;20489;-46
2022/12/27 10:54:02;;;;;;;8.73;3.45;;;6.00;99.90;;;;;;5033733;28;20056;-45
2022/12/27 10:56:48;;;;;;;5.93;3.33;;;6.00;99.90;;;;;;5032917;28;20021;-53
2022/12/27 10:59:36;;;;;;;8.98;3.35;;;6.00;99.90;;;;;;5030997;28;20099;-46
2022/12/27 11:02:22;;;;;;;9.52;3.38;;;6.10;99.90;;;;;;5029781;28;20135;-45
2022/12/27 11:05:23;;;;;;;8.82;3.78;;;6.20;99.90;;;;;;5030531;28;20506;-48
2022/12/27 11:08:20;;;;;;;6.88;3.53;;;6.20;99.90;;;;;;5032950;28;20030;-50
2022/12/27 11:11:16;;;;;;;11.05;3.90;;;6.20;99.90;;;;;;5032421;28;20029;-50
2022/12/27 11:14:10;;;;;;;8.60;3.60;;;6.30;99.90;;;;;;5032609;28;20053;-52
2022/12/27 11:16:56;;;;;;;6.18;3.25;;;6.30;99.90;;;;;;5031484;28;20052;-47
2022/12/27 11:19:46;;;;;;;7.78;3.70;;;6.20;99.90;;;;;;5032269;28;20021;-49
2022/12/27 11:22:32;;;;;;;10.20;3.55;;;6.30;99.90;;;;;;5031876;28;20398;-47
2022/12/27 11:25:19;;;;;;;9.32;3.40;;;6.30;99.90;;;;;;5032445;28;20040;-48
2022/12/27 11:28:27;;;;;;;10.77;3.55;;;6.30;99.90;;;;;;5031367;28;20536;-49
2022/12/27 11:31:16;;;;;;;7.28;3.75;;;6.40;99.90;;;;;;5031213;28;20036;-60
2022/12/27 11:34:26;;;;;;;5.65;3.40;;;6.40;99.90;;;;;;5032817;28;20071;-51
2022/12/27 11:37:18;;;;;;;7.75;3.58;;;6.30;99.90;;;;;;5032584;28;20032;-51
2022/12/27 11:40:19;;;;;;;4.97;3.20;;;6.50;99.90;;;;;;5035527;28;20026;-49
2022/12/27 11:43:10;;;;;;;7.93;3.75;;;6.40;99.90;;;;;;5036606;28;20017;-49
2022/12/27 11:45:59;;;;;;;6.47;3.25;;;6.60;99.90;;;;;;5036637;28;20033;-48
2022/12/27 11:48:49;;;;;;;7.53;3.33;;;6.60;99.90;;;;;;5036571;28;20033;-48
2022/12/27 11:51:48;;;;;;;5.55;3.17;;;6.70;99.90;;;;;;5034930;28;20033;-47
2022/12/27 11:54:54;;;;;;;5.30;3.30;;;6.80;99.90;;;;;;5036238;28;20056;-49
2022/12/27 11:57:59;;;;;;;8.02;3.33;;;7.00;99.90;;;;;;5035062;28;20025;-54
2022/12/27 12:00:54;;;;;;;9.93;3.80;;;6.90;99.90;;;;;;5034740;28;20029;-48
2022/12/27 12:03:58;;;;;;;8.07;3.20;;;6.90;99.90;;;;;;5036293;28;20037;-50
2022/12/27 12:07:03;;;;;;;7.00;3.70;;;6.80;99.90;;;;;;5036115;28;20605;-53
2022/12/27 12:10:11;;;;;;;7.03;3.80;;;6.80;99.90;;;;;;5036021;28;20033;-48
2022/12/27 12:13:15;;;;;;;4.38;2.92;;;6.80;99.90;;;;;;5033847;28;20370;-51
2022/12/27 12:16:49;;;;;;;6.72;3.15;;;6.70;99.90;;;;;;5033703;28;20510;-49
2022/12/27 12:20:06;;;;;;;6.15;3.03;;;6.60;99.90;;;;;;5050790;28;20040;-49
2022/12/27 12:23:10;;;;;;;5.50;2.83;;;6.40;99.90;;;;;;5036015;28;20022;-46
2022/12/27 12:26:15;;;;;;;5.82;3.20;;;6.50;99.90;;;;;;5035599;28;20044;-54
2022/12/27 12:29:04;;;;;;;8.98;3.15;;;6.50;99.90;;;;;;5035440;28;20486;-52
2022/12/27 12:31:56;;;;;;;4.57;3.10;;;6.50;99.90;;;;;;5033279;28;20028;-48
2022/12/27 12:34:54;;;;;;;5.60;3.22;;;6.50;99.90;;;;;;5035300;28;20037;-47
2022/12/27 12:38:12;;;;;;;13.57;3.45;;;6.50;99.90;;;;;;5035468;28;20132;-45
2022/12/27 12:41:27;;;;;;;4.03;3.45;;;6.10;99.90;;;;;;5035167;28;20021;-48
2022/12/27 12:44:37;;;;;;;6.63;3.60;;;6.10;99.90;;;;;;5034379;28;20424;-52
2022/12/27 12:47:47;;;;;;;8.00;3.70;;;6.00;99.90;;;;;;5034129;28;20037;-48
2022/12/27 12:50:41;;;;;;;4.75;3.53;;;5.90;99.90;;;;;;5032537;28;20070;-47
2022/12/27 12:53:40;;;;;;;5.10;3.55;;;5.70;99.90;;;;;;5035271;28;20055;-48
2022/12/27 12:57:04;;;;;;;6.05;3.47;;;5.80;99.90;;;;;;5035215;28;20026;-50
2022/12/27 13:00:08;;;;;;;6.65;4.35;;;5.90;99.90;;;;;;5034894;28;20072;-55
2022/12/27 13:03:38;;;;;;;8.05;4.20;;;5.80;99.90;;;;;;5034560;28;20083;-56
2022/12/27 13:06:57;;;;;;;7.85;3.83;;;6.00;99.90;;;;;;5034590;28;20100;-44
2022/12/27 13:09:56;;;;;;;7.65;3.50;;;6.30;99.90;;;;;;5035003;28;20026;-45
2022/12/27 13:12:55;;;;;;;7.10;3.83;;;6.60;99.90;;;;;;5034706;28;20049;-56
2022/12/27 13:15:50;;;;;;;7.90;3.20;;;6.80;99.90;;;;;;5034801;28;20037;-46
2022/12/27 13:18:53;;;;;;;8.95;3.78;;;7.00;99.90;;;;;;5034784;28;20045;-48
2022/12/27 13:22:04;;;;;;;7.07;3.40;;;7.10;99.90;;;;;;5034446;28;20026;-47
2022/12/27 13:24:58;;;;;;;6.50;3.50;;;7.30;99.90;;;;;;5034589;28;20489;-47
2022/12/27 13:27:57;;;;;;;10.10;4.15;;;7.40;99.90;;;;;;5034631;28;20021;-46
2022/12/27 13:31:02;;;;;;;5.53;3.20;;;7.50;99.90;;;;;;5034152;28;20474;-50
2022/12/27 13:34:24;;;;;;;6.53;3.13;;;7.60;99.90;;;;;;5032304;28;20075;-47
2022/12/27 13:37:25;;;;;;;7.82;3.45;;;7.70;99.90;;;;;;5033483;28;20026;-49
2022/12/27 13:40:53;;;;;;;9.05;3.55;;;7.60;99.90;;;;;;5019472;28;20028;-54
2022/12/27 13:44:28;;;;;;;6.03;3.10;;;7.70;99.90;;;;;;5034332;28;20048;-52
2022/12/27 13:47:41;;;;;;;8.23;3.00;;;7.70;99.90;;;;;;5033740;28;20394;-46
2022/12/27 13:51:18;;;;;;;5.63;3.45;;;7.60;99.90;;;;;;5031994;28;20076;-45
2022/12/27 13:54:04;;;;;;;5.88;3.05;;;7.60;99.90;;;;;;5048273;28;20172;-48
2022/12/27 13:57:18;;;;;;;7.72;3.25;;;7.50;99.90;;;;;;5034155;28;20394;-53
2022/12/27 14:00:17;;;;;;;5.10;3.22;;;7.50;99.90;;;;;;5031806;28;20096;-50
2022/12/27 14:03:06;;;;;;;5.95;2.95;;;7.60;99.90;;;;;;5033740;28;20029;-46
2022/12/27 14:06:19;;;;;;;7.90;3.10;;;7.80;99.90;;;;;;5034208;28;20048;-50
2022/12/27 14:09:21;;;;;;;12.35;4.63;;;7.70;99.90;;;;;;5033948;28;20457;-46
2022/12/27 14:12:31;;;;;;;7.88;3.05;;;7.60;99.90;;;;;;5031090;28;20383;-45
2022/12/27 14:15:21;;;;;;;6.68;3.47;;;7.50;99.90;;;;;;5033327;28;20028;-52
2022/12/27 14:18:27;;;;;;;6.13;3.08;;;7.40;99.90;;;;;;5033556;28;20025;-47
2022/12/27 14:21:33;;;;;;;7.45;3.15;;;7.40;99.90;;;;;;5033039;28;20048;-48
2022/12/27 14:24:52;;;;;;;6.60;3.50;;;7.30;99.90;;;;;;5033524;28;20120;-45
2022/12/27 14:27:59;;;;;;;10.35;4.10;;;7.20;99.90;;;;;;5032358;28;20026;-55
2022/12/27 14:31:24;;;;;;;4.90;2.95;;;7.20;99.90;;;;;;5033414;28;20494;-45
2022/12/27 14:34:19;;;;;;;9.00;3.75;;;7.10;99.90;;;;;;5032447;28;20108;-47
2022/12/27 14:37:41;;;;;;;6.53;3.35;;;7.00;99.90;;;;;;5033842;28;20386;-46
2022/12/27 14:41:01;;;;;;;8.82;3.92;;;6.90;99.90;;;;;;5033151;28;20021;-48
2022/12/27 14:44:15;;;;;;;4.30;3.28;;;6.80;99.90;;;;;;5033708;28;20049;-46
2022/12/27 14:47:32;;;;;;;7.53;3.33;;;6.80;99.90;;;;;;5033764;28;20034;-51
2022/12/27 14:50:41;;;;;;;4.82;2.88;;;6.60;99.90;;;;;;5032686;28;20524;-55
2022/12/27 14:53:45;;;;;;;5.60;3.00;;;6.50;99.90;;;;;;5044651;28;20033;-47
2022/12/27 14:57:06;;;;;;;6.68;3.78;;;6.60;99.90;;;;;;5033428;28;20061;-48
2022/12/27 15:00:01;;;;;;;5.07;2.90;;;6.60;99.90;;;;;;5033472;28;20071;-46
2022/12/27 15:02:59;;;;;;;8.05;3.22;;;6.60;99.90;;;;;;5032903;28;20208;-49
2022/12/27 15:06:17;;;;;;;6.00;3.13;;;6.60;99.90;;;;;;5032825;28;20026;-49
2022/12/27 15:09:41;;;;;;;7.07;3.72;;;6.60;99.90;;;;;;5032783;28;20033;-45
2022/12/27 15:12:49;;;;;;;9.35;3.25;;;6.60;99.90;;;;;;5031487;28;20741;-57
2022/12/27 15:16:18;;;;;;;8.65;3.95;;;6.50;99.90;;;;;;5032738;28;20056;-50
2022/12/27 15:19:13;;;;;;;7.10;3.45;;;6.40;99.90;;;;;;5043427;28;20033;-52
2022/12/27 15:22:40;;;;;;;5.75;3.13;;;6.50;99.90;;;;;;5031495;28;20025;-44
2022/12/27 15:25:35;;;;;;;7.38;3.38;;;6.50;99.90;;;;;;5032333;28;20113;-54
2022/12/27 15:28:27;;;;;;;4.60;3.45;;;6.40;99.90;;;;;;5032679;28;20405;-47
2022/12/27 15:31:39;;;;;;;6.38;3.53;;;6.40;99.90;;;;;;5032281;28;20029;-50
2022/12/27 15:34:43;;;;;;;7.40;3.63;;;6.40;99.90;;;;;;5031677;28;20056;-46
2022/12/27 15:37:52;;;;;;;5.82;3.13;;;6.40;99.90;;;;;;5031682;28;20108;-47
2022/12/27 15:40:43;;;;;;;5.47;3.45;;;6.40;99.90;;;;;;5030235;28;20080;-46
2022/12/27 15:43:48;;;;;;;5.38;3.92;;;6.30;99.90;;;;;;5032748;28;20538;-48
2022/12/27 15:46:55;;;;;;;6.97;3.60;;;6.30;99.90;;;;;;5033348;28;20049;-48
2022/12/27 15:50:17;;;;;;;5.65;3.25;;;6.30;99.90;;;;;;5030325;28;20052;-49
2022/12/27 15:53:25;;;;;;;8.65;3.88;;;6.30;99.90;;;;;;5031524;28;20018;-55
2022/12/27 15:56:39;;;;;;;5.32;3.15;;;6.30;99.90;;;;;;5031846;28;20445;-51
2022/12/27 15:59:30;;;;;;;6.45;3.40;;;6.30;99.90;;;;;;5034123;28;20037;-51
2022/12/27 16:02:18;;;;;;;5.05;3.35;;;6.20;99.90;;;;;;5034810;28;20051;-50
2022/12/27 16:05:20;;;;;;;6.50;3.08;;;6.20;99.90;;;;;;5033458;28;20108;-50
2022/12/27 16:08:06;;;;;;;6.55;3.40;;;6.20;99.90;;;;;;5039384;28;20068;-53
2022/12/27 16:10:54;;;;;;;5.68;3.63;;;6.20;99.90;;;;;;5038922;28;20037;-57
2022/12/27 16:13:48;;;;;;;7.78;3.80;;;6.20;99.90;;;;;;5044095;28;20035;-54
2022/12/27 16:16:37;;;;;;;8.10;3.72;;;6.20;99.90;;;;;;5039459;28;20033;-49
2022/12/27 16:19:47;;;;;;;10.05;3.83;;;6.10;99.90;;;;;;5033602;28;20021;-55
2022/12/27 16:22:40;;;;;;;6.78;3.55;;;6.00;99.90;;;;;;5032491;28;20493;-52
2022/12/27 16:25:36;;;;;;;7.65;3.72;;;6.00;99.90;;;;;;5034425;28;20065;-52
2022/12/27 16:28:26;;;;;;;9.65;3.45;;;6.00;99.90;;;;;;5034908;28;20021;-49
2022/12/27 16:31:12;;;;;;;6.28;3.65;;;6.00;99.90;;;;;;5035602;28;20029;-51
2022/12/27 16:34:10;;;;;;;5.72;3.42;;;5.90;99.90;;;;;;5033712;28;20039;-54
2022/12/27 16:36:58;;;;;;;6.60;3.55;;;5.90;99.90;;;;;;5034816;28;20029;-53
2022/12/27 16:40:09;;;;;;;6.25;3.25;;;5.80;99.90;;;;;;5035964;28;20083;-54
2022/12/27 16:42:57;;;;;;;8.93;3.50;;;5.70;99.90;;;;;;5035764;28;20053;-51
2022/12/27 16:46:07;;;;;;;8.80;3.75;;;5.70;99.90;;;;;;5035670;28;20033;-53
2022/12/27 16:49:22;;;;;;;7.05;4.25;;;5.80;99.90;;;;;;5033339;28;20116;-55
2022/12/27 16:52:30;;;;;;;9.60;3.67;;;5.70;99.90;;;;;;5033199;28;20077;-50
2022/12/27 16:55:39;;;;;;;6.53;3.65;;;5.70;99.90;;;;;;5035478;28;20560;-54
2022/12/27 16:58:28;;;;;;;6.85;3.20;;;5.80;99.90;;;;;;5035263;28;20470;-51
2022/12/27 17:01:17;;;;;;;8.50;3.30;;;5.90;99.90;;;;;;5033727;28;20049;-47